createdAt,value
2019-01-18T00:00:30.077Z,-4.60
2019-01-18T00:02:59.606Z,-4.60
2019-01-18T00:05:28.537Z,-4.60
2019-01-18T00:07:57.816Z,-4.60
2019-01-18T00:10:26.739Z,-4.60
2019-01-18T00:12:57.382Z,-4.60
2019-01-18T00:15:27.348Z,-4.60
2019-01-18T00:17:59.799Z,-4.60
2019-01-18T00:20:29.265Z,-4.70
2019-01-18T00:22:58.424Z,-4.70
2019-01-18T00:25:27.466Z,-4.70
2019-01-18T00:27:57.125Z,-4.70
2019-01-18T00:30:26.153Z,-4.70
2019-01-18T00:32:56.705Z,-4.70
2019-01-18T00:35:25.780Z,-4.70
2019-01-18T00:37:54.781Z,-4.70
2019-01-18T00:40:24.326Z,-4.70
2019-01-18T00:42:53.401Z,-4.70
2019-01-18T00:45:22.442Z,-4.80
2019-01-18T00:47:51.572Z,-4.80
2019-01-18T00:50:26.652Z,-4.80
2019-01-18T00:52:55.630Z,-4.80
2019-01-18T00:55:24.418Z,-4.80
2019-01-18T00:57:53.736Z,-4.80
2019-01-18T01:00:47.659Z,-4.80
2019-01-18T01:03:16.928Z,-4.80
2019-01-18T01:05:45.764Z,-4.80
2019-01-18T01:08:14.551Z,-4.80
2019-01-18T01:10:45.139Z,-4.80
2019-01-18T01:13:24.742Z,-4.80
2019-01-18T01:15:54.127Z,-4.80
2019-01-18T01:18:23.098Z,-4.80
2019-01-18T01:20:51.926Z,-4.80
2019-01-18T01:23:21.256Z,-4.70
2019-01-18T01:25:50.272Z,-4.70
2019-01-18T01:28:19.738Z,-4.70
2019-01-18T01:30:49.394Z,-4.70
2019-01-18T01:33:19.830Z,-4.70
2019-01-18T01:35:49.425Z,-4.70
2019-01-18T01:38:18.499Z,-4.70
2019-01-18T01:40:47.804Z,-4.70
2019-01-18T01:43:16.659Z,-4.70
2019-01-18T01:45:45.581Z,-4.60
2019-01-18T01:48:14.970Z,-4.60
2019-01-18T01:50:51.068Z,-4.60
2019-01-18T01:53:20.186Z,-4.60
2019-01-18T01:55:52.007Z,-4.60
2019-01-18T01:58:21.041Z,-4.60
2019-01-18T02:00:51.803Z,-4.60
2019-01-18T02:03:20.874Z,-4.50
2019-01-18T02:05:50.012Z,-4.50
2019-01-18T02:08:19.973Z,-4.50
2019-01-18T02:10:49.224Z,-4.50
2019-01-18T02:13:18.143Z,-4.50
2019-01-18T02:15:47.022Z,-4.50
2019-01-18T02:18:17.153Z,-4.50
2019-01-18T02:20:47.056Z,-4.40
2019-01-18T02:23:17.142Z,-4.40
2019-01-18T02:25:46.490Z,-4.40
2019-01-18T02:28:15.357Z,-4.50
2019-01-18T02:30:44.392Z,-4.50
2019-01-18T02:33:13.454Z,-4.40
2019-01-18T02:35:42.454Z,-4.40
2019-01-18T02:38:11.732Z,-4.40
2019-01-18T02:40:40.971Z,-4.40
2019-01-18T02:43:10.591Z,-4.40
2019-01-18T02:45:39.562Z,-4.40
2019-01-18T02:48:08.591Z,-4.40
2019-01-18T02:50:39.480Z,-4.40
2019-01-18T02:53:16.477Z,-4.40
2019-01-18T02:55:45.363Z,-4.40
2019-01-18T02:58:14.440Z,-4.50
2019-01-18T03:00:43.531Z,-4.50
2019-01-18T03:03:12.915Z,-4.50
2019-01-18T03:05:41.812Z,-4.50
2019-01-18T03:08:11.413Z,-4.50
2019-01-18T03:10:40.269Z,-4.50
2019-01-18T03:13:09.116Z,-4.50
2019-01-18T03:15:38.313Z,-4.50
2019-01-18T03:18:10.156Z,-4.50
2019-01-18T03:20:39.222Z,-4.50
2019-01-18T03:23:08.091Z,-4.50
2019-01-18T03:25:36.951Z,-4.50
2019-01-18T03:28:06.514Z,-4.60
2019-01-18T03:30:36.742Z,-4.60
2019-01-18T03:33:05.699Z,-4.60
2019-01-18T03:35:34.744Z,-4.60
2019-01-18T03:38:03.564Z,-4.60
2019-01-18T03:40:32.512Z,-4.60
2019-01-18T03:43:01.647Z,-4.60
2019-01-18T03:45:31.690Z,-4.60
2019-01-18T03:48:00.536Z,-4.70
2019-01-18T03:50:30.041Z,-4.70
2019-01-18T03:52:59.109Z,-4.70
2019-01-18T03:55:28.113Z,-4.70
2019-01-18T03:57:57.212Z,-4.70
2019-01-18T04:00:27.785Z,-4.70
2019-01-18T04:02:56.718Z,-4.70
2019-01-18T04:05:26.092Z,-4.70
2019-01-18T04:07:55.098Z,-4.70
2019-01-18T04:10:24.138Z,-4.70
2019-01-18T04:12:53.495Z,-4.70
2019-01-18T04:15:41.861Z,-4.70
2019-01-18T04:18:11.086Z,-4.70
2019-01-18T04:20:40.073Z,-4.70
2019-01-18T04:23:08.977Z,-4.70
2019-01-18T04:25:38.217Z,-4.70
2019-01-18T04:28:07.131Z,-4.70
2019-01-18T04:30:36.248Z,-4.70
2019-01-18T04:33:24.654Z,-4.70
2019-01-18T04:35:53.617Z,-4.70
2019-01-18T04:38:22.411Z,-4.70
2019-01-18T04:40:51.648Z,-4.70
2019-01-18T04:43:20.466Z,-4.70
2019-01-18T04:45:49.700Z,-4.70
2019-01-18T04:48:19.196Z,-4.70
2019-01-18T04:50:48.064Z,-4.80
2019-01-18T04:53:16.901Z,-4.80
2019-01-18T04:55:46.034Z,-4.80
2019-01-18T04:58:15.288Z,-4.90
2019-01-18T05:00:44.170Z,-4.90
2019-01-18T05:03:13.145Z,-4.90
2019-01-18T05:05:42.028Z,-4.90
2019-01-18T05:08:11.086Z,-4.90
2019-01-18T05:10:40.141Z,-4.90
2019-01-18T05:13:09.140Z,-4.90
2019-01-18T05:15:38.172Z,-4.90
2019-01-18T05:18:07.076Z,-4.90
2019-01-18T05:20:55.348Z,-4.90
2019-01-18T05:23:24.277Z,-4.90
2019-01-18T05:25:53.296Z,-4.90
2019-01-18T05:28:22.154Z,-4.90
2019-01-18T05:30:51.186Z,-4.90
2019-01-18T05:33:22.429Z,-4.90
2019-01-18T05:35:52.551Z,-4.90
2019-01-18T05:38:21.511Z,-4.90
2019-01-18T05:40:51.090Z,-4.90
2019-01-18T05:43:20.309Z,-4.90
2019-01-18T05:45:49.838Z,-4.90
2019-01-18T05:48:19.114Z,-4.90
2019-01-18T05:50:48.378Z,-4.80
2019-01-18T05:53:17.989Z,-4.90
2019-01-18T05:55:46.828Z,-4.90
2019-01-18T05:58:16.060Z,-4.90
2019-01-18T06:00:46.578Z,-4.90
2019-01-18T06:03:15.669Z,-4.90
2019-01-18T06:05:44.875Z,-4.90
2019-01-18T06:08:14.816Z,-4.90
2019-01-18T06:10:44.053Z,-4.90
2019-01-18T06:13:13.203Z,-4.90
2019-01-18T06:15:42.207Z,-4.90
2019-01-18T06:18:11.142Z,-4.90
2019-01-18T06:20:40.242Z,-4.90
2019-01-18T06:23:09.344Z,-4.90
2019-01-18T06:25:38.394Z,-4.90
2019-01-18T06:28:07.342Z,-4.90
2019-01-18T06:31:01.582Z,-4.90
2019-01-18T06:33:28.139Z,-4.90
2019-01-18T06:35:56.928Z,-4.90
2019-01-18T06:38:26.284Z,-4.90
2019-01-18T06:40:56.701Z,-4.90
2019-01-18T06:43:29.237Z,-4.90
2019-01-18T06:45:58.206Z,-4.90
2019-01-18T06:48:27.958Z,-5.00
2019-01-18T06:50:56.826Z,-5.00
2019-01-18T06:53:25.955Z,-5.00
2019-01-18T06:55:54.832Z,-5.00
2019-01-18T06:58:23.735Z,-5.00
2019-01-18T07:00:52.791Z,-5.00
2019-01-18T07:03:21.871Z,-5.00
2019-01-18T07:05:50.831Z,-4.90
2019-01-18T07:08:20.079Z,-4.90
2019-01-18T07:10:49.326Z,-4.90
2019-01-18T07:13:18.355Z,-4.90
2019-01-18T07:15:47.881Z,-4.90
2019-01-18T07:18:16.719Z,-4.90
2019-01-18T07:20:48.454Z,-4.90
2019-01-18T07:23:17.822Z,-4.90
2019-01-18T07:25:46.938Z,-4.90
2019-01-18T07:28:15.790Z,-4.90
2019-01-18T07:30:44.984Z,-4.90
2019-01-18T07:33:14.222Z,-4.90
2019-01-18T07:35:45.372Z,-4.90
2019-01-18T07:38:14.383Z,-4.90
2019-01-18T07:40:43.431Z,-4.90
2019-01-18T07:43:12.419Z,-4.90
2019-01-18T07:45:41.503Z,-4.90
2019-01-18T07:48:11.519Z,-4.90
2019-01-18T07:50:41.341Z,-4.90
2019-01-18T07:53:10.269Z,-4.90
2019-01-18T07:55:39.179Z,-4.80
2019-01-18T07:58:08.222Z,-4.90
2019-01-18T08:00:37.400Z,-4.90
2019-01-18T08:03:06.361Z,-4.90
2019-01-18T08:05:35.150Z,-4.90
2019-01-18T08:08:04.885Z,-4.90
2019-01-18T08:10:33.742Z,-4.90
2019-01-18T08:13:02.765Z,-4.90
2019-01-18T08:15:33.252Z,-4.90
2019-01-18T08:18:02.236Z,-4.90
2019-01-18T08:20:31.001Z,-4.90
2019-01-18T08:23:00.157Z,-4.90
2019-01-18T08:25:29.204Z,-4.90
2019-01-18T08:27:58.169Z,-4.90
2019-01-18T08:30:29.172Z,-4.80
2019-01-18T08:32:58.065Z,-4.80
2019-01-18T08:35:29.131Z,-4.80
2019-01-18T08:38:00.562Z,-4.80
2019-01-18T08:40:48.757Z,-4.80
2019-01-18T08:43:20.225Z,-4.80
2019-01-18T08:45:50.610Z,-4.80
2019-01-18T08:48:20.351Z,-4.70
2019-01-18T08:50:49.541Z,-4.70
2019-01-18T08:53:18.560Z,-4.70
2019-01-18T08:55:47.884Z,-4.60
2019-01-18T08:58:15.998Z,-4.60
2019-01-18T09:00:46.274Z,-4.60
2019-01-18T09:03:14.459Z,-4.60
2019-01-18T09:06:01.792Z,-4.60
2019-01-18T09:08:30.030Z,-4.50
2019-01-18T09:10:58.044Z,-4.50
2019-01-18T09:13:26.621Z,-4.50
2019-01-18T09:15:57.838Z,-4.50
2019-01-18T09:18:25.879Z,-4.50
2019-01-18T09:20:53.806Z,-4.50
2019-01-18T09:23:22.070Z,-4.40
2019-01-18T09:25:50.281Z,-4.40
2019-01-18T09:28:18.824Z,-4.40
2019-01-18T09:30:47.278Z,-4.50
2019-01-18T09:33:16.406Z,-4.40
2019-01-18T09:35:45.112Z,-4.40
2019-01-18T09:38:17.695Z,-4.30
2019-01-18T09:40:43.534Z,-4.30
2019-01-18T09:43:19.458Z,-4.20
2019-01-18T09:45:47.458Z,-4.30
2019-01-18T09:48:15.840Z,-4.30
2019-01-18T09:50:45.138Z,-4.30
2019-01-18T09:53:13.437Z,-4.30
2019-01-18T09:55:41.502Z,-4.20
2019-01-18T09:58:11.321Z,-4.20
2019-01-18T10:00:39.567Z,-4.20
2019-01-18T10:03:07.698Z,-4.20
2019-01-18T10:05:36.124Z,-4.20
2019-01-18T10:08:11.170Z,-4.20
2019-01-18T10:10:43.518Z,-4.20
2019-01-18T10:13:11.582Z,-4.20
2019-01-18T10:15:41.882Z,-4.10
2019-01-18T10:18:10.228Z,-4.10
2019-01-18T10:20:40.224Z,-4.10
2019-01-18T10:23:08.396Z,-4.10
2019-01-18T10:25:37.084Z,-4.10
2019-01-18T10:28:05.105Z,-4.10
2019-01-18T10:30:33.341Z,-4.10
2019-01-18T10:33:10.606Z,-4.10
2019-01-18T10:35:39.757Z,-4.10
2019-01-18T10:38:11.035Z,-4.10
2019-01-18T10:40:39.223Z,-4.10
2019-01-18T10:43:07.243Z,-4.10
2019-01-18T10:45:35.475Z,-4.10
2019-01-18T10:48:03.891Z,-4.00
2019-01-18T10:50:34.056Z,-4.00
2019-01-18T10:53:05.132Z,-4.00
2019-01-18T10:55:33.364Z,-3.90
2019-01-18T10:58:01.461Z,-3.90
2019-01-18T11:00:31.175Z,-3.80
2019-01-18T11:02:59.461Z,-3.70
2019-01-18T11:05:27.809Z,-3.70
2019-01-18T11:07:55.898Z,-3.70
2019-01-18T11:10:24.141Z,-3.70
2019-01-18T11:12:52.239Z,-3.60
2019-01-18T11:15:21.825Z,-3.60
2019-01-18T11:17:50.224Z,-3.60
2019-01-18T11:20:23.354Z,-3.50
2019-01-18T11:22:52.106Z,-3.50
2019-01-18T11:25:20.528Z,-3.50
2019-01-18T11:27:49.480Z,-3.50
2019-01-18T11:30:36.732Z,-3.50
2019-01-18T11:33:05.046Z,-3.50
2019-01-18T11:35:33.436Z,-3.50
2019-01-18T11:38:01.631Z,-3.50
2019-01-18T11:40:30.362Z,-3.50
2019-01-18T11:42:58.910Z,-3.50
2019-01-18T11:45:46.185Z,-3.50
2019-01-18T11:48:14.543Z,-3.50
2019-01-18T11:50:42.512Z,-3.50
2019-01-18T11:53:11.849Z,-3.60
2019-01-18T11:55:40.991Z,-3.60
2019-01-18T11:58:10.257Z,-3.60
2019-01-18T12:00:39.092Z,-3.60
2019-01-18T12:03:27.452Z,-3.60
2019-01-18T12:05:56.372Z,-3.60
2019-01-18T12:08:25.221Z,-3.60
2019-01-18T12:10:54.273Z,-3.60
2019-01-18T12:13:23.415Z,-3.60
2019-01-18T12:15:52.255Z,-3.60
2019-01-18T12:18:22.507Z,-3.60
2019-01-18T12:20:52.984Z,-3.60
2019-01-18T12:23:24.214Z,-3.60
2019-01-18T12:25:53.377Z,-3.60
2019-01-18T12:28:24.118Z,-3.50
2019-01-18T12:30:53.190Z,-3.50
2019-01-18T12:33:22.343Z,-3.60
2019-01-18T12:35:57.079Z,-3.50
2019-01-18T12:38:26.166Z,-3.60
2019-01-18T12:40:55.291Z,-3.60
2019-01-18T12:43:24.373Z,-3.60
2019-01-18T12:45:53.530Z,-3.50
2019-01-18T12:48:22.817Z,-3.50
2019-01-18T12:50:57.992Z,-3.50
2019-01-18T12:53:26.885Z,-3.50
2019-01-18T12:55:55.806Z,-3.60
2019-01-18T12:58:24.949Z,-3.60
2019-01-18T13:00:53.814Z,-3.50
2019-01-18T13:03:22.670Z,-3.60
2019-01-18T13:05:52.662Z,-3.50
2019-01-18T13:08:21.747Z,-3.50
2019-01-18T13:10:52.630Z,-3.50
2019-01-18T13:13:22.030Z,-3.50
2019-01-18T13:15:56.384Z,-3.50
2019-01-18T13:18:25.569Z,-3.50
2019-01-18T13:20:54.515Z,-3.50
2019-01-18T13:23:23.342Z,-3.50
2019-01-18T13:25:52.786Z,-3.40
2019-01-18T13:28:21.715Z,-3.50
2019-01-18T13:30:51.340Z,-3.50
2019-01-18T13:33:21.180Z,-3.40
2019-01-18T13:35:50.787Z,-3.50
2019-01-18T13:38:19.604Z,-3.50
2019-01-18T13:40:49.457Z,-3.40
2019-01-18T13:43:18.633Z,-3.40
2019-01-18T13:45:48.682Z,-3.40
2019-01-18T13:48:17.750Z,-3.40
2019-01-18T13:50:47.238Z,-3.40
2019-01-18T13:53:16.215Z,-3.40
2019-01-18T13:55:45.710Z,-3.40
2019-01-18T13:58:14.730Z,-3.40
2019-01-18T14:00:43.708Z,-3.40
2019-01-18T14:03:25.873Z,-3.40
2019-01-18T14:05:54.795Z,-3.40
2019-01-18T14:08:23.997Z,-3.40
2019-01-18T14:10:53.448Z,-3.40
2019-01-18T14:13:22.299Z,-3.40
2019-01-18T14:15:52.265Z,-3.50
2019-01-18T14:18:22.655Z,-3.50
2019-01-18T14:20:51.658Z,-3.50
2019-01-18T14:23:20.780Z,-3.50
2019-01-18T14:25:50.322Z,-3.50
2019-01-18T14:28:20.152Z,-3.50
2019-01-18T14:30:49.554Z,-3.60
2019-01-18T14:33:19.309Z,-3.50
2019-01-18T14:35:48.209Z,-3.50
2019-01-18T14:38:17.164Z,-3.50
2019-01-18T14:40:46.253Z,-3.50
2019-01-18T14:43:15.276Z,-3.50
2019-01-18T14:45:44.933Z,-3.50
2019-01-18T14:48:14.267Z,-3.50
2019-01-18T14:50:43.488Z,-3.50
2019-01-18T14:53:12.375Z,-3.50
2019-01-18T14:55:41.474Z,-3.60
2019-01-18T14:58:10.309Z,-3.50
2019-01-18T15:00:40.031Z,-3.60
2019-01-18T15:03:12.122Z,-3.50
2019-01-18T15:05:41.845Z,-3.60
2019-01-18T15:08:37.458Z,-3.60
2019-01-18T15:11:06.519Z,-3.60
2019-01-18T15:13:35.496Z,-3.60
2019-01-18T15:16:04.962Z,-3.60
2019-01-18T15:18:34.461Z,-3.60
2019-01-18T15:21:03.349Z,-3.60
2019-01-18T15:23:33.052Z,-3.60
2019-01-18T15:26:02.081Z,-3.70
2019-01-18T15:28:30.915Z,-3.70
2019-01-18T15:31:01.412Z,-3.70
2019-01-18T15:33:30.765Z,-3.70
2019-01-18T15:36:00.950Z,-3.70
2019-01-18T15:38:42.967Z,-3.70
2019-01-18T15:41:11.778Z,-3.70
2019-01-18T15:43:41.792Z,-3.70
2019-01-18T15:46:10.876Z,-3.60
2019-01-18T15:48:40.069Z,-3.70
2019-01-18T15:51:10.475Z,-3.70
2019-01-18T15:53:39.512Z,-3.70
2019-01-18T15:56:08.395Z,-3.70
2019-01-18T15:58:37.597Z,-3.70
2019-01-18T16:01:06.837Z,-3.70
2019-01-18T16:03:35.806Z,-3.70
2019-01-18T16:06:05.185Z,-3.70
2019-01-18T16:08:34.250Z,-3.70
2019-01-18T16:11:03.326Z,-3.70
2019-01-18T16:13:32.216Z,-3.70
2019-01-18T16:16:04.739Z,-3.70
2019-01-18T16:18:33.982Z,-3.70
2019-01-18T16:21:03.119Z,-3.70
2019-01-18T16:23:35.050Z,-3.70
2019-01-18T16:26:04.549Z,-3.70
2019-01-18T16:28:33.597Z,-3.70
2019-01-18T16:31:03.117Z,-3.70
2019-01-18T16:33:32.081Z,-3.70
2019-01-18T16:36:02.890Z,-3.70
2019-01-18T16:38:33.407Z,-3.70
2019-01-18T16:41:07.094Z,-3.70
2019-01-18T16:43:36.899Z,-3.70
2019-01-18T16:46:07.859Z,-3.70
2019-01-18T16:48:45.443Z,-3.80
2019-01-18T16:51:14.470Z,-3.80
2019-01-18T16:53:47.092Z,-3.80
2019-01-18T16:56:16.077Z,-3.80
2019-01-18T16:58:46.716Z,-3.80
2019-01-18T17:01:16.494Z,-3.80
2019-01-18T17:03:45.338Z,-3.80
2019-01-18T17:06:14.565Z,-3.80
2019-01-18T17:08:43.965Z,-3.80
2019-01-18T17:11:13.128Z,-3.80
2019-01-18T17:13:45.463Z,-3.80
2019-01-18T17:16:14.475Z,-3.80
2019-01-18T17:18:43.500Z,-3.90
2019-01-18T17:21:14.437Z,-3.90
2019-01-18T17:23:43.368Z,-3.90
2019-01-18T17:26:12.727Z,-3.90
2019-01-18T17:28:42.536Z,-3.90
2019-01-18T17:31:11.537Z,-4.00
2019-01-18T17:33:42.329Z,-3.90
2019-01-18T17:36:16.734Z,-4.00
2019-01-18T17:38:47.684Z,-4.00
2019-01-18T17:41:22.592Z,-4.00
2019-01-18T17:43:54.629Z,-4.00
2019-01-18T17:46:38.756Z,-3.90
2019-01-18T17:49:21.988Z,-4.00
2019-01-18T17:55:13.917Z,-3.90
2019-01-18T17:58:04.575Z,-3.90
2019-01-18T18:00:50.947Z,-4.00
2019-01-18T18:03:36.481Z,-4.00
2019-01-18T18:06:08.325Z,-4.00
2019-01-18T18:08:43.435Z,-4.00
2019-01-18T18:11:44.004Z,-4.00
2019-01-18T18:14:23.267Z,-4.00
2019-01-18T18:17:36.145Z,-4.00
2019-01-18T18:20:25.379Z,-4.00
2019-01-18T18:23:12.719Z,-4.00
2019-01-18T18:25:55.064Z,-4.00
2019-01-18T18:28:41.775Z,-4.00
2019-01-18T18:34:24.914Z,-4.00
2019-01-18T18:37:05.033Z,-4.00
2019-01-18T18:45:50.793Z,-4.00
2019-01-18T18:48:39.047Z,-4.10
2019-01-18T18:51:30.449Z,-4.10
2019-01-18T18:54:09.219Z,-4.10
2019-01-18T18:56:56.448Z,-4.10
2019-01-18T19:03:07.574Z,-4.10
2019-01-18T19:05:46.209Z,-4.10
2019-01-18T19:08:25.355Z,-4.10
2019-01-18T19:11:14.917Z,-4.10
2019-01-18T19:14:15.519Z,-4.10
2019-01-18T19:16:56.644Z,-4.10
2019-01-18T19:19:36.631Z,-4.10
2019-01-18T19:22:20.399Z,-4.10
2019-01-18T19:25:16.262Z,-4.10
2019-01-18T19:28:21.055Z,-4.10
2019-01-18T19:30:58.975Z,-4.20
2019-01-18T19:33:32.074Z,-4.20
2019-01-18T19:36:10.089Z,-4.20
2019-01-18T19:38:56.998Z,-4.20
2019-01-18T19:44:41.091Z,-4.20
2019-01-18T19:47:16.436Z,-4.20
2019-01-18T19:50:10.941Z,-4.20
2019-01-18T19:53:02.363Z,-4.30
2019-01-18T19:56:17.763Z,-4.20
2019-01-18T19:59:09.161Z,-4.20
2019-01-18T20:01:44.668Z,-4.20
2019-01-18T20:07:15.388Z,-4.30
2019-01-18T20:09:57.480Z,-4.30
2019-01-18T20:12:37.793Z,-4.30
2019-01-18T20:15:39.645Z,-4.30
2019-01-18T20:18:17.712Z,-4.30
2019-01-18T20:20:55.423Z,-4.30
2019-01-18T20:23:46.864Z,-4.30
2019-01-18T20:26:22.650Z,-4.30
2019-01-18T20:29:29.435Z,-4.30
2019-01-18T20:32:24.183Z,-4.30
2019-01-18T20:35:11.498Z,-4.30
2019-01-18T20:38:07.007Z,-4.30
2019-01-18T20:40:54.162Z,-4.30
2019-01-18T20:43:28.865Z,-4.30
2019-01-18T20:46:06.339Z,-4.30
2019-01-18T20:48:43.945Z,-4.40
2019-01-18T20:51:43.494Z,-4.40
2019-01-18T20:57:38.672Z,-4.40
2019-01-18T21:00:20.177Z,-4.40
2019-01-18T21:02:58.710Z,-4.40
2019-01-18T21:05:45.530Z,-4.40
2019-01-18T21:08:46.525Z,-4.40
2019-01-18T21:11:21.269Z,-4.40
2019-01-18T21:13:57.210Z,-4.40
2019-01-18T21:16:31.813Z,-4.40
2019-01-18T21:19:29.341Z,-4.40
2019-01-18T21:22:06.158Z,-4.40
2019-01-18T21:25:12.609Z,-4.40
2019-01-18T21:28:03.856Z,-4.40
2019-01-18T21:31:08.937Z,-4.40
2019-01-18T21:33:55.593Z,-4.50
2019-01-18T21:36:30.147Z,-4.40
2019-01-18T21:39:32.184Z,-4.50
2019-01-18T21:42:10.078Z,-4.50
2019-01-18T21:45:11.423Z,-4.50
2019-01-18T21:47:46.284Z,-4.50
2019-01-18T21:50:29.133Z,-4.50
2019-01-18T21:53:09.852Z,-4.50
2019-01-18T21:55:46.084Z,-4.50
2019-01-18T21:58:30.912Z,-4.50
2019-01-18T22:04:09.389Z,-4.50
2019-01-18T22:06:59.019Z,-4.50
2019-01-18T22:09:30.807Z,-4.60
2019-01-18T22:12:50.334Z,-4.60
2019-01-18T22:15:47.058Z,-4.60
2019-01-18T22:21:34.854Z,-4.60
2019-01-18T22:24:24.338Z,-4.60
2019-01-18T22:27:17.331Z,-4.60
2019-01-18T22:33:11.384Z,-4.60
2019-01-18T22:36:34.696Z,-4.60
2019-01-18T22:39:12.226Z,-4.60
2019-01-18T22:44:57.123Z,-4.60
2019-01-18T22:47:58.032Z,-4.60
2019-01-18T22:50:38.726Z,-4.60
2019-01-18T22:53:17.685Z,-4.70
2019-01-18T22:55:54.915Z,-4.70
2019-01-18T22:58:32.907Z,-4.70
2019-01-18T23:01:21.984Z,-4.70
2019-01-18T23:04:02.127Z,-4.70
2019-01-18T23:06:45.974Z,-4.70
2019-01-18T23:12:54.376Z,-4.70
2019-01-18T23:15:56.364Z,-4.70
2019-01-18T23:18:52.634Z,-4.70
2019-01-18T23:21:35.269Z,-4.70
2019-01-18T23:24:13.348Z,-4.70
2019-01-18T23:27:06.030Z,-4.70
2019-01-18T23:29:41.753Z,-4.70
2019-01-18T23:32:25.532Z,-4.70
2019-01-18T23:35:30.049Z,-4.70
2019-01-18T23:38:11.897Z,-4.70
2019-01-18T23:40:52.004Z,-4.70
2019-01-18T23:43:26.881Z,-4.70
2019-01-18T23:45:58.934Z,-4.80
2019-01-18T23:48:33.753Z,-4.70
2019-01-18T23:51:24.995Z,-4.80
2019-01-18T23:53:56.837Z,-4.70
2019-01-18T23:56:56.918Z,-4.70
2019-01-18T23:59:50.179Z,-4.70
